»·PEaware :: DAL5544 KSAN-KPSP

DAL5544 :: KSAN-KPSP

FLIGHT INFORMATION

Flight Status: Arrived
Operator:
Delta Air Lines
More flights by this operator :: More flights under this callsign
Pilot: Blake E. (25579)
Aircraft: AIRBUS A321
(A321)
More flights by this aircraft type
Origin: KSAN San Diego Intl-Lindbergh
United States
Destination: KPSP Palm Springs Intl
United States
More flights between these airports :: More routes between these airports
Route: +PGY JLI V208 TRM
File this flight plan on PilotEdge
Remarks: NONE
Altitude:
(Current/Filed)
13,000ft
Speed:
(Current/Filed)
250kts
Departed: 23-Mar-20 07:13 PM
Arrived: 23-Mar-20 07:40 PM
Distance/Time
Traveled:
74nm/0:27
Distance/Time
To Go:
Arrived

Flight Plot

Page will automatically refresh every two minutes.

Flight plan parsing failed; only flown route is shown


Map Options




Map Legend


Flown Route
Filed Route
Departure Airport
Arrival Airport
Navaid (VOR, NDB)
Fix

Horizontal Profiles

Position Reports

Time Latitude Longitude Heading Altitude Ground
Speed
23-Mar-20 18:46 32.733381 -117.204671 80 19ft 0kts
23-Mar-20 18:47 32.733381 -117.204671 80 19ft 0kts
23-Mar-20 18:48 32.733381 -117.204671 80 19ft 0kts
23-Mar-20 18:49 32.733381 -117.204671 80 19ft 0kts
23-Mar-20 18:50 32.733381 -117.204671 80 19ft 0kts
23-Mar-20 18:51 32.733381 -117.204671 80 19ft 0kts
23-Mar-20 18:52 32.733381 -117.204671 80 19ft 0kts
23-Mar-20 18:53 32.733381 -117.204671 80 19ft 0kts
23-Mar-20 18:54 32.733381 -117.204671 80 19ft 0kts
23-Mar-20 18:55 32.733381 -117.204671 80 19ft 0kts
23-Mar-20 18:56 32.733381 -117.204671 80 19ft 0kts
23-Mar-20 18:57 32.733381 -117.204671 80 19ft 0kts
23-Mar-20 18:57 32.733381 -117.204671 80 19ft 0kts
23-Mar-20 18:59 32.733381 -117.204671 80 19ft 0kts
23-Mar-20 19:00 32.733381 -117.204671 80 19ft 0kts
23-Mar-20 19:00 32.733381 -117.204671 80 19ft 0kts
23-Mar-20 19:01 32.733330 -117.205024 80 19ft 2kts
23-Mar-20 19:03 32.733176 -117.205633 41 19ft 1kts
23-Mar-20 19:03 32.733172 -117.205638 41 19ft 0kts
23-Mar-20 19:04 32.733172 -117.205638 41 19ft 0kts
23-Mar-20 19:05 32.733189 -117.205621 40 19ft 2kts
23-Mar-20 19:06 32.735626 -117.202483 106 19ft 19kts
23-Mar-20 19:07 32.734014 -117.195822 106 20ft 10kts
23-Mar-20 19:08 32.732269 -117.188602 105 20ft 32kts
23-Mar-20 19:09 32.729976 -117.179192 106 20ft 26kts
23-Mar-20 19:10 32.729475 -117.176952 82 24ft 0kts
23-Mar-20 19:11 32.729475 -117.176952 82 24ft 0kts
23-Mar-20 19:12 32.730549 -117.177330 285 25ft 46kts
23-Mar-20 19:13 32.742321 -117.227182 286 2121ft 203kts
23-Mar-20 19:14 32.760887 -117.302598 286 5122ft 256kts
23-Mar-20 19:15 32.765941 -117.384724 235 8045ft 269kts
23-Mar-20 19:16 32.693640 -117.390229 161 10467ft 307kts
23-Mar-20 19:17 32.620927 -117.322781 114 11403ft 385kts
23-Mar-20 19:18 32.597077 -117.194358 83 12989ft 412kts
23-Mar-20 19:19 32.612921 -117.059621 81 12998ft 410kts
23-Mar-20 19:20 32.628909 -116.925579 81 12998ft 409kts
23-Mar-20 19:21 32.644539 -116.791254 81 12995ft 409kts
23-Mar-20 19:22 32.677830 -116.680187 33 13000ft 396kts
23-Mar-20 19:23 32.782562 -116.654783 2 13008ft 391kts
23-Mar-20 19:24 32.890370 -116.635734 5 12998ft 391kts
23-Mar-20 19:25 32.997640 -116.614645 5 12986ft 392kts
23-Mar-20 19:26 33.105877 -116.593178 7 12980ft 394kts
23-Mar-20 19:27 33.199228 -116.536746 34 12977ft 400kts
23-Mar-20 19:28 33.289199 -116.457078 34 12929ft 401kts
23-Mar-20 19:29 33.371792 -116.384958 33 12866ft 335kts
23-Mar-20 19:30 33.443726 -116.322023 34 12854ft 317kts
23-Mar-20 19:31 33.514651 -116.259759 34 12827ft 313kts
23-Mar-20 19:32 33.584606 -116.198355 34 11364ft 306kts
23-Mar-20 19:33 33.652802 -116.204279 294 9026ft 276kts
23-Mar-20 19:34 33.685045 -116.285968 297 6768ft 266kts
23-Mar-20 19:35 33.718997 -116.362427 298 4604ft 242kts
23-Mar-20 19:36 33.747756 -116.426648 301 3016ft 197kts
23-Mar-20 19:37 33.784045 -116.467189 322 1324ft 153kts
23-Mar-20 19:38 33.815621 -116.495259 322 560ft 139kts
23-Mar-20 19:39 33.833215 -116.511447 252 444ft 12kts
23-Mar-20 19:40 33.832734 -116.511938 186 443ft 0kts
23-Mar-20 19:41 33.832734 -116.511938 186 443ft 0kts
23-Mar-20 19:42 33.832734 -116.511938 186 443ft 0kts
23-Mar-20 19:43 33.832734 -116.511938 186 443ft 0kts

Navigation Log

Ident Type
Flight plan parsing failed, navigation log unavailable